createdAt,value
2019-04-16T00:01:53.578Z,62.03
2019-04-16T00:05:00.799Z,61.24
2019-04-16T00:07:48.783Z,62.35
2019-04-16T00:10:37.478Z,61.60
2019-04-16T00:13:25.870Z,60.11
2019-04-16T00:18:56.384Z,61.65
2019-04-16T00:24:12.467Z,60.71
2019-04-16T00:27:21.008Z,62.65
2019-04-16T00:29:49.691Z,62.01
2019-04-16T00:34:55.172Z,61.18
2019-04-16T00:37:23.932Z,62.13
2019-04-16T00:42:59.765Z,61.44
2019-04-16T00:45:28.437Z,60.61
2019-04-16T00:47:57.051Z,60.91
2019-04-16T00:50:25.796Z,61.51
2019-04-16T00:52:54.695Z,63.06
2019-04-16T00:55:45.036Z,62.21
2019-04-16T00:58:13.533Z,61.72
2019-04-16T01:00:42.299Z,61.15
2019-04-16T01:03:11.553Z,60.86
2019-04-16T01:05:40.831Z,59.18
2019-04-16T01:08:10.303Z,58.67
2019-04-16T01:10:39.495Z,59.01
2019-04-16T01:13:08.169Z,59.58
2019-04-16T01:15:36.855Z,57.13
2019-04-16T01:18:08.183Z,58.49
2019-04-16T01:20:36.197Z,58.47
2019-04-16T01:23:04.913Z,57.25
2019-04-16T01:25:34.206Z,58.40
2019-04-16T01:28:22.296Z,60.04
2019-04-16T01:33:46.611Z,58.64
2019-04-16T01:36:35.469Z,60.16
2019-04-16T01:41:59.750Z,57.16
2019-04-16T01:47:05.269Z,57.28
2019-04-16T01:49:34.825Z,57.54
2019-04-16T01:52:04.114Z,58.36
2019-04-16T01:54:32.804Z,58.41
2019-04-16T01:57:22.523Z,59.99
2019-04-16T01:59:51.348Z,59.03
2019-04-16T02:02:20.593Z,58.67
2019-04-16T02:04:52.071Z,58.68
2019-04-16T02:07:20.276Z,58.57
2019-04-16T02:09:49.784Z,59.54
2019-04-16T02:12:38.071Z,59.17
2019-04-16T02:15:27.403Z,60.44
2019-04-16T02:17:58.770Z,60.95
2019-04-16T02:20:27.385Z,61.71
2019-04-16T02:22:56.071Z,61.51
2019-04-16T02:25:25.252Z,60.89
2019-04-16T02:27:56.995Z,60.12
2019-04-16T02:30:25.596Z,60.66
2019-04-16T02:33:13.605Z,62.99
2019-04-16T02:35:42.728Z,62.15
2019-04-16T02:38:30.680Z,61.79
2019-04-16T02:40:59.287Z,62.11
2019-04-16T02:46:36.357Z,62.38
2019-04-16T02:49:05.100Z,61.48
2019-04-16T02:54:33.809Z,61.66
2019-04-16T03:02:44.560Z,62.89
2019-04-16T03:08:04.993Z,61.83
2019-04-16T03:10:34.025Z,62.15
2019-04-16T03:13:02.747Z,62.09
2019-04-16T03:15:52.836Z,62.49
2019-04-16T03:21:10.937Z,62.95
2019-04-16T03:26:07.568Z,63.29
2019-04-16T03:28:58.398Z,63.76
2019-04-16T03:31:45.838Z,64.10
2019-04-16T03:34:14.517Z,62.18
2019-04-16T03:36:43.873Z,62.74
2019-04-16T03:39:13.933Z,62.51
2019-04-16T03:41:44.032Z,62.26
2019-04-16T03:44:13.193Z,62.64
2019-04-16T03:46:46.069Z,63.18
2019-04-16T03:49:12.794Z,62.84
2019-04-16T03:51:41.479Z,62.91
2019-04-16T03:54:10.538Z,63.13
2019-04-16T03:56:39.938Z,62.19
2019-04-16T04:01:46.035Z,62.77
2019-04-16T04:04:34.585Z,63.03
2019-04-16T04:07:03.690Z,63.34
2019-04-16T04:09:32.903Z,63.72
2019-04-16T04:12:42.660Z,64.27
2019-04-16T04:15:31.484Z,63.85
2019-04-16T04:18:00.976Z,64.07
2019-04-16T04:20:30.378Z,64.18
2019-04-16T04:22:59.153Z,64.30
2019-04-16T04:25:47.093Z,64.35
2019-04-16T04:28:19.622Z,64.84
2019-04-16T04:31:05.804Z,65.06
2019-04-16T04:33:54.160Z,65.99
2019-04-16T04:36:26.712Z,66.19
2019-04-16T04:38:53.183Z,66.34
2019-04-16T04:41:23.101Z,66.07
2019-04-16T04:43:52.647Z,67.34
2019-04-16T04:47:01.200Z,68.71
2019-04-16T04:49:49.289Z,68.44
2019-04-16T04:52:37.597Z,67.75
2019-04-16T04:58:15.069Z,67.32
2019-04-16T05:00:43.767Z,67.38
2019-04-16T05:06:07.103Z,67.50
2019-04-16T05:08:35.819Z,66.84
2019-04-16T05:11:04.500Z,68.83
2019-04-16T05:13:33.038Z,68.36
2019-04-16T05:16:02.669Z,69.13
2019-04-16T05:18:31.974Z,69.04
2019-04-16T05:21:00.554Z,68.63
2019-04-16T05:23:29.294Z,68.48
2019-04-16T05:25:58.371Z,68.48
2019-04-16T05:28:27.222Z,68.70
2019-04-16T05:30:56.290Z,68.27
2019-04-16T05:33:44.845Z,67.58
2019-04-16T05:36:34.245Z,66.66
2019-04-16T05:39:42.792Z,65.99
2019-04-16T05:42:11.379Z,67.27
2019-04-16T05:44:40.066Z,66.50
2019-04-16T05:47:08.758Z,66.20
2019-04-16T05:49:37.443Z,66.89
2019-04-16T05:52:06.093Z,67.19
2019-04-16T05:57:32.968Z,65.68
2019-04-16T06:00:03.368Z,66.24
2019-04-16T06:05:21.243Z,64.10
2019-04-16T06:07:49.942Z,64.38
2019-04-16T06:10:19.167Z,64.49
2019-04-16T06:13:09.404Z,63.48
2019-04-16T06:15:57.603Z,63.70
2019-04-16T06:18:45.412Z,62.44
2019-04-16T06:24:22.500Z,61.17
2019-04-16T06:27:10.340Z,61.43
2019-04-16T06:30:01.343Z,61.18
2019-04-16T06:35:23.030Z,60.06
2019-04-16T06:38:10.894Z,59.19
2019-04-16T06:46:13.418Z,57.73
2019-04-16T06:49:01.422Z,58.18
2019-04-16T06:51:49.183Z,55.31
2019-04-16T06:54:37.271Z,50.21
2019-04-16T06:57:26.909Z,45.14
2019-04-16T07:00:14.605Z,39.65
2019-04-16T07:03:03.036Z,38.77
2019-04-16T07:05:51.923Z,35.62
2019-04-16T07:13:48.893Z,34.33
2019-04-16T07:16:17.567Z,31.01
2019-04-16T07:18:46.226Z,32.84
2019-04-16T07:21:17.554Z,34.19
2019-04-16T07:23:46.715Z,34.15
2019-04-16T07:26:15.883Z,33.11
2019-04-16T07:31:39.582Z,33.62
2019-04-16T07:39:52.021Z,30.94
2019-04-16T07:42:51.341Z,29.92
2019-04-16T07:45:29.344Z,30.67
2019-04-16T07:48:17.167Z,31.02
2019-04-16T07:53:40.116Z,32.07
2019-04-16T07:56:27.867Z,32.19
2019-04-16T07:59:00.202Z,32.43
2019-04-16T08:01:26.999Z,29.14
2019-04-16T08:04:00.274Z,31.14
2019-04-16T08:06:26.034Z,32.47
2019-04-16T08:08:57.139Z,32.62
2019-04-16T08:11:25.169Z,32.29
2019-04-16T08:13:53.751Z,31.61
2019-04-16T08:19:01.590Z,32.54
2019-04-16T08:21:30.166Z,35.80
2019-04-16T08:24:17.910Z,34.46
2019-04-16T08:26:46.563Z,37.61
2019-04-16T08:29:15.257Z,38.39
2019-04-16T08:34:33.156Z,38.29
2019-04-16T08:37:01.777Z,39.75
2019-04-16T08:39:30.477Z,40.66
2019-04-16T08:41:59.169Z,39.92
2019-04-16T08:44:27.742Z,41.09
2019-04-16T08:46:58.874Z,40.66
2019-04-16T08:49:26.692Z,43.04
2019-04-16T08:51:55.369Z,42.38
2019-04-16T08:54:23.982Z,44.48
2019-04-16T08:56:52.618Z,44.97
2019-04-16T08:59:21.241Z,45.37
2019-04-16T09:04:58.001Z,43.16
2019-04-16T09:07:50.667Z,40.56
2019-04-16T09:13:24.771Z,42.06
2019-04-16T09:21:10.256Z,43.19
2019-04-16T09:23:38.250Z,42.74
2019-04-16T09:26:26.065Z,43.18
2019-04-16T09:32:03.107Z,43.08
2019-04-16T09:37:28.627Z,43.65
2019-04-16T09:40:18.413Z,43.54
2019-04-16T09:42:46.325Z,44.95
2019-04-16T09:48:04.238Z,42.27
2019-04-16T09:50:32.841Z,41.79
2019-04-16T09:53:02.027Z,42.29
2019-04-16T09:55:31.749Z,39.30
2019-04-16T10:01:19.111Z,40.17
2019-04-16T10:04:06.928Z,41.08
2019-04-16T10:09:24.946Z,39.35
2019-04-16T10:11:57.192Z,38.29
2019-04-16T10:14:25.451Z,39.18
2019-04-16T10:16:54.127Z,38.00
2019-04-16T10:19:22.678Z,41.72
2019-04-16T10:21:54.268Z,40.25
2019-04-16T10:24:40.798Z,40.53
2019-04-16T10:29:44.931Z,41.00
2019-04-16T10:32:13.619Z,42.13
2019-04-16T10:34:42.302Z,39.71
2019-04-16T10:37:10.951Z,38.36
2019-04-16T10:39:58.790Z,39.54
2019-04-16T10:42:46.509Z,38.10
2019-04-16T10:45:34.379Z,39.00
2019-04-16T10:48:22.196Z,38.30
2019-04-16T10:56:24.118Z,36.51
2019-04-16T10:59:11.970Z,36.98
2019-04-16T11:01:59.704Z,35.80
2019-04-16T11:04:47.468Z,35.65
2019-04-16T11:10:45.177Z,38.68
2019-04-16T11:15:49.198Z,38.60
2019-04-16T11:18:17.851Z,40.35
2019-04-16T11:20:46.630Z,38.82
2019-04-16T11:23:15.158Z,38.89
2019-04-16T11:25:43.875Z,36.48
2019-04-16T11:28:14.361Z,35.70
2019-04-16T11:33:51.467Z,34.40
2019-04-16T11:36:20.987Z,35.75
2019-04-16T11:38:50.573Z,35.02
2019-04-16T11:41:19.269Z,31.79
2019-04-16T11:43:47.984Z,34.68
2019-04-16T11:46:16.729Z,34.05
2019-04-16T11:48:45.323Z,32.50
2019-04-16T11:51:14.013Z,29.05
2019-04-16T11:53:42.588Z,30.69
2019-04-16T11:56:11.251Z,31.03
2019-04-16T12:01:55.014Z,31.61
2019-04-16T12:04:42.801Z,31.02
2019-04-16T12:07:30.608Z,33.45
2019-04-16T12:10:18.343Z,33.54
2019-04-16T12:13:06.275Z,31.87
2019-04-16T12:18:43.274Z,30.26
2019-04-16T12:21:31.001Z,30.80
2019-04-16T12:24:18.838Z,30.05
2019-04-16T12:27:06.580Z,32.92
2019-04-16T12:29:54.394Z,29.72
2019-04-16T12:35:21.597Z,31.83
2019-04-16T12:38:13.102Z,31.85
2019-04-16T12:40:58.965Z,30.37
2019-04-16T12:49:11.507Z,31.76
2019-04-16T12:51:59.260Z,30.72
2019-04-16T12:57:36.277Z,29.27
2019-04-16T13:00:44.768Z,29.14
2019-04-16T13:03:32.543Z,30.21
2019-04-16T13:06:20.347Z,29.92
2019-04-16T13:09:08.154Z,29.42
2019-04-16T13:11:55.976Z,29.68
2019-04-16T13:14:43.761Z,28.66
2019-04-16T13:17:31.570Z,29.30
2019-04-16T13:20:19.409Z,30.92
2019-04-16T13:28:16.253Z,27.23
2019-04-16T13:30:44.939Z,28.03
2019-04-16T13:33:13.524Z,29.72
2019-04-16T13:35:42.199Z,29.70
2019-04-16T13:41:02.189Z,28.38
2019-04-16T13:46:19.785Z,30.21
2019-04-16T13:49:07.590Z,31.22
2019-04-16T13:57:06.385Z,31.66
2019-04-16T13:59:54.088Z,31.17
2019-04-16T14:05:17.677Z,32.94
2019-04-16T14:07:46.356Z,32.88
2019-04-16T14:10:15.135Z,31.98
2019-04-16T14:12:43.789Z,34.00
2019-04-16T14:15:52.240Z,32.21
2019-04-16T14:18:21.920Z,32.89
2019-04-16T14:20:51.303Z,32.12
2019-04-16T14:23:19.912Z,32.07
2019-04-16T14:25:48.569Z,32.12
2019-04-16T14:28:18.160Z,35.17
2019-04-16T14:33:55.938Z,34.84
2019-04-16T14:36:24.695Z,36.06
2019-04-16T14:41:32.388Z,33.53
2019-04-16T14:46:50.209Z,35.67
2019-04-16T14:49:19.083Z,35.41
2019-04-16T14:51:49.263Z,34.50
2019-04-16T14:54:37.083Z,35.84
2019-04-16T15:00:14.116Z,37.80
2019-04-16T15:19:05.202Z,45.86
2019-04-16T15:21:53.016Z,47.05
2019-04-16T15:27:31.636Z,47.52
2019-04-16T15:30:19.538Z,47.98
2019-04-16T15:33:07.390Z,48.65
2019-04-16T15:38:30.793Z,49.44
2019-04-16T15:41:18.549Z,50.11
2019-04-16T15:44:06.378Z,49.61
2019-04-16T15:46:54.160Z,49.91
2019-04-16T15:50:02.622Z,50.53
2019-04-16T15:52:50.322Z,50.48
2019-04-16T15:55:38.056Z,50.79
2019-04-16T16:01:15.005Z,49.85
2019-04-16T16:04:02.778Z,51.45
2019-04-16T16:09:47.004Z,51.14
2019-04-16T16:14:54.791Z,50.15
2019-04-16T16:17:23.503Z,51.13
2019-04-16T16:19:52.153Z,51.12
2019-04-16T16:22:20.884Z,50.57
2019-04-16T16:24:49.562Z,50.95
2019-04-16T16:27:18.209Z,51.18
2019-04-16T16:29:46.982Z,50.84
2019-04-16T16:32:15.621Z,51.36
2019-04-16T16:35:03.637Z,50.81
2019-04-16T16:37:33.935Z,52.00
2019-04-16T16:40:02.871Z,51.36
2019-04-16T16:42:31.498Z,52.13
2019-04-16T16:45:01.951Z,50.52
2019-04-16T16:50:51.636Z,53.24
2019-04-16T16:53:39.359Z,51.98
2019-04-16T16:56:27.179Z,52.17
2019-04-16T17:01:55.381Z,51.25
2019-04-16T17:07:00.945Z,50.36
2019-04-16T17:09:50.252Z,51.36
2019-04-16T17:12:18.962Z,51.76
2019-04-16T17:14:47.609Z,51.53
2019-04-16T17:17:16.187Z,50.26
2019-04-16T17:19:45.072Z,51.09
2019-04-16T17:22:14.604Z,52.05
2019-04-16T17:24:44.411Z,50.37
2019-04-16T17:27:13.352Z,52.19
2019-04-16T17:29:42.240Z,53.18
2019-04-16T17:32:11.039Z,50.03
2019-04-16T17:34:39.947Z,49.79
2019-04-16T17:37:10.103Z,49.94
2019-04-16T17:39:57.889Z,49.27
2019-04-16T17:42:45.689Z,50.71
2019-04-16T17:45:52.789Z,49.74
2019-04-16T17:51:20.086Z,49.04
2019-04-16T17:56:57.113Z,49.15
2019-04-16T18:02:20.200Z,50.50
2019-04-16T18:05:08.021Z,50.81
2019-04-16T18:07:55.695Z,51.08
2019-04-16T18:15:58.492Z,53.46
2019-04-16T18:21:21.581Z,54.94
2019-04-16T18:24:09.355Z,55.08
2019-04-16T18:34:48.306Z,57.14
2019-04-16T18:37:36.002Z,56.73
2019-04-16T18:40:44.477Z,57.13
2019-04-16T18:43:52.946Z,58.08
2019-04-16T18:46:40.671Z,56.77
2019-04-16T18:51:45.067Z,56.81
2019-04-16T18:54:14.985Z,57.55
2019-04-16T18:56:44.289Z,59.15
2019-04-16T18:59:12.974Z,59.39
2019-04-16T19:02:00.911Z,61.21
2019-04-16T19:04:29.615Z,61.13
2019-04-16T19:06:58.626Z,60.62
2019-04-16T19:09:28.859Z,60.41
2019-04-16T19:11:57.683Z,60.78
2019-04-16T19:14:26.358Z,60.78
2019-04-16T19:16:55.046Z,60.87
2019-04-16T19:19:23.697Z,60.45
2019-04-16T19:21:53.114Z,61.01
2019-04-16T19:24:22.939Z,61.04
2019-04-16T19:26:51.627Z,61.18
2019-04-16T19:29:20.267Z,61.39
2019-04-16T19:31:48.874Z,61.51
2019-04-16T19:34:17.540Z,61.15
2019-04-16T19:36:55.875Z,61.76
2019-04-16T19:39:24.342Z,61.10
2019-04-16T19:41:57.150Z,61.75
2019-04-16T19:44:23.406Z,61.38
2019-04-16T19:46:53.721Z,61.91
2019-04-16T19:49:22.538Z,62.20
2019-04-16T19:51:51.201Z,61.91
2019-04-16T19:54:19.884Z,61.99
2019-04-16T19:56:51.377Z,62.50
2019-04-16T19:59:18.979Z,62.71
2019-04-16T20:01:47.700Z,62.32
2019-04-16T20:04:16.304Z,62.96
2019-04-16T20:06:44.979Z,63.35
2019-04-16T20:09:13.660Z,64.04
2019-04-16T20:11:42.317Z,64.34
2019-04-16T20:14:35.383Z,64.26
2019-04-16T20:17:00.658Z,64.80
2019-04-16T20:19:29.363Z,65.25
2019-04-16T20:21:58.060Z,66.51
2019-04-16T20:24:26.778Z,66.35
2019-04-16T20:26:55.741Z,66.24
2019-04-16T20:29:24.343Z,66.41
2019-04-16T20:31:53.346Z,66.81
2019-04-16T20:34:23.465Z,67.87
2019-04-16T20:36:54.738Z,67.21
2019-04-16T20:39:22.485Z,68.27
2019-04-16T20:41:53.100Z,67.84
2019-04-16T20:44:21.458Z,68.11
2019-04-16T20:47:09.376Z,67.97
2019-04-16T20:49:38.082Z,68.12
2019-04-16T20:52:06.781Z,68.51
2019-04-16T20:57:25.704Z,67.94
2019-04-16T20:59:55.062Z,68.47
2019-04-16T21:05:21.867Z,68.97
2019-04-16T21:07:43.869Z,69.01
2019-04-16T21:10:13.757Z,69.12
2019-04-16T21:12:45.028Z,69.50
2019-04-16T21:15:12.896Z,69.66
2019-04-16T21:17:41.475Z,69.98
2019-04-16T21:20:10.277Z,70.33
2019-04-16T21:22:38.922Z,70.73
2019-04-16T21:25:47.405Z,71.31
2019-04-16T21:28:35.225Z,71.20
2019-04-16T21:33:58.748Z,71.75
2019-04-16T21:36:46.450Z,71.79
2019-04-16T21:39:34.365Z,71.95
2019-04-16T21:42:03.444Z,72.16
2019-04-16T21:44:33.516Z,72.24
2019-04-16T21:47:02.205Z,71.59
2019-04-16T21:49:38.225Z,71.80
2019-04-16T21:52:23.236Z,72.38
2019-04-16T21:55:10.504Z,72.06
2019-04-16T21:57:42.867Z,72.34
2019-04-16T22:05:40.639Z,73.88
2019-04-16T22:08:09.337Z,74.01
2019-04-16T22:10:37.981Z,74.18
2019-04-16T22:13:26.539Z,74.51
2019-04-16T22:15:57.256Z,74.52
2019-04-16T22:18:26.386Z,74.27
2019-04-16T22:20:56.069Z,74.46
2019-04-16T22:23:26.616Z,73.98
2019-04-16T22:26:00.438Z,74.42
2019-04-16T22:28:45.510Z,75.18
2019-04-16T22:31:14.131Z,74.28
2019-04-16T22:33:43.093Z,74.67
2019-04-16T22:36:31.347Z,74.95
2019-04-16T22:39:19.373Z,75.47
2019-04-16T22:42:07.653Z,75.88
2019-04-16T22:44:55.597Z,76.19
2019-04-16T22:47:43.763Z,76.81
2019-04-16T22:50:17.030Z,76.31
2019-04-16T22:52:45.134Z,76.57
2019-04-16T22:55:14.296Z,76.44
2019-04-16T22:58:03.529Z,76.74
2019-04-16T23:00:52.024Z,77.61
2019-04-16T23:03:20.696Z,78.21
2019-04-16T23:05:49.627Z,77.95
2019-04-16T23:08:19.196Z,78.13
2019-04-16T23:10:50.601Z,78.09
2019-04-16T23:13:18.119Z,77.64
2019-04-16T23:15:46.872Z,77.83
2019-04-16T23:18:17.668Z,77.62
2019-04-16T23:20:46.534Z,77.56
2019-04-16T23:23:18.149Z,77.69
2019-04-16T23:25:46.237Z,77.91
2019-04-16T23:28:14.862Z,78.12
2019-04-16T23:30:44.658Z,78.46
2019-04-16T23:33:14.396Z,78.85
2019-04-16T23:35:44.603Z,78.22
2019-04-16T23:38:14.399Z,78.47
2019-04-16T23:40:44.748Z,78.55
2019-04-16T23:43:33.695Z,79.07
2019-04-16T23:46:21.974Z,79.52
2019-04-16T23:52:03.003Z,79.52
2019-04-16T23:57:35.675Z,80.05
